Time;durP1;ratioP1;P1;durP2;ratioP2;P2;SDS_P1;SDS_P2;PMS_P1;PMS_P2;Temp;Humidity;BMP_temperature;BMP_pressure;BME280_temperature;BME280_humidity;BME280_pressure;Samples;Min_cycle;Max_cycle;Signal;HPM_P1;HPM_P2
2023/01/11 00:00:25;;;;;;;2.30;0.98;;;;;;;;;;4945505;28;20050;-79
2023/01/11 00:02:59;;;;;;;2.53;1.00;;;;;;;;;;4993692;28;20404;-77
2023/01/11 00:05:26;;;;;;;1.77;1.30;;;;;;;;;;4958176;28;20057;-78
2023/01/11 00:07:53;;;;;;;3.40;1.13;;;;;;;;;;4977752;28;20422;-79
2023/01/11 00:10:19;;;;;;;1.95;1.20;;;;;;;;;;4977490;28;20065;-79
2023/01/11 00:12:46;;;;;;;5.10;2.03;;;;;;;;;;4977861;28;20046;-76
2023/01/11 00:15:13;;;;;;;3.70;0.80;;;;;;;;;;4994326;28;20053;-79
2023/01/11 00:17:40;;;;;;;1.10;0.70;;;;;;;;;;4994248;28;20517;-77
2023/01/11 00:20:09;;;;;;;2.05;0.77;;;;;;;;;;4993727;28;20058;-77
2023/01/11 00:22:35;;;;;;;5.65;1.30;;;;;;;;;;4977249;28;20050;-76
2023/01/11 00:25:03;;;;;;;2.15;0.73;;;;;;;;;;4961180;28;20061;-77
2023/01/11 00:27:29;;;;;;;1.42;0.70;;;;;;;;;;4974244;28;20065;-76
2023/01/11 00:29:56;;;;;;;2.22;0.90;;;;;;;;;;4973955;28;20061;-77
2023/01/11 00:32:23;;;;;;;4.10;1.20;;;;;;;;;;4945436;28;20050;-76
2023/01/11 00:34:50;;;;;;;2.70;0.75;;;;;;;;;;4973878;28;20509;-76
2023/01/11 00:37:16;;;;;;;1.52;0.77;;;;;;;;;;4960699;28;20104;-76
2023/01/11 00:39:43;;;;;;;2.75;1.05;;;;;;;;;;4977523;28;20049;-76
2023/01/11 00:47:56;;;;;;;1.25;0.63;;;;;;;;;;4996375;28;20057;-77
2023/01/11 00:50:28;;;;;;;4.63;1.02;;;;;;;;;;4961281;28;20058;-77
2023/01/11 00:52:55;;;;;;;3.47;1.00;;;;;;;;;;4958320;28;20054;-77
2023/01/11 00:55:22;;;;;;;2.65;0.70;;;;;;;;;;4978187;28;20054;-77
2023/01/11 00:57:49;;;;;;;2.08;1.00;;;;;;;;;;4977907;28;20045;-77
2023/01/11 01:00:17;;;;;;;2.10;0.77;;;;;;;;;;4993833;28;20050;-77
2023/01/11 01:02:43;;;;;;;4.15;0.77;;;;;;;;;;4994243;28;20054;-78
2023/01/11 01:05:10;;;;;;;3.22;0.75;;;;;;;;;;4974873;28;20054;-77
2023/01/11 01:07:37;;;;;;;2.65;0.70;;;;;;;;;;4965659;28;20060;-77
2023/01/11 01:10:04;;;;;;;1.40;0.60;;;;;;;;;;4993919;28;20058;-77
2023/01/11 01:15:18;;;;;;;1.58;0.70;;;;;;;;;;5010752;28;20050;-77
2023/01/11 01:17:45;;;;;;;2.10;0.70;;;;;;;;;;4995439;28;20065;-77
2023/01/11 01:20:13;;;;;;;1.15;0.60;;;;;;;;;;4948997;28;20443;-77
2023/01/11 01:22:40;;;;;;;2.45;0.60;;;;;;;;;;4979788;28;20053;-77
2023/01/11 01:25:07;;;;;;;2.33;0.73;;;;;;;;;;4980189;28;20502;-77
2023/01/11 01:27:34;;;;;;;4.18;0.80;;;;;;;;;;4975239;28;20042;-77
2023/01/11 01:30:00;;;;;;;3.33;0.75;;;;;;;;;;5001476;28;20482;-77
2023/01/11 01:32:27;;;;;;;3.90;0.60;;;;;;;;;;4978516;28;20065;-77
2023/01/11 01:34:54;;;;;;;0.75;0.50;;;;;;;;;;4979514;28;20046;-77
2023/01/11 01:37:20;;;;;;;2.17;0.60;;;;;;;;;;4995992;28;20054;-78
2023/01/11 01:39:47;;;;;;;1.48;0.55;;;;;;;;;;4978498;28;20073;-77
2023/01/11 01:42:15;;;;;;;1.40;0.50;;;;;;;;;;4995464;28;20057;-77
2023/01/11 01:44:57;;;;;;;2.28;0.55;;;;;;;;;;4976218;28;20582;-78
2023/01/11 01:47:36;;;;;;;2.63;0.73;;;;;;;;;;4994105;28;20042;-78
2023/01/11 01:50:14;;;;;;;3.10;0.60;;;;;;;;;;4995825;28;20069;-78
2023/01/11 01:52:40;;;;;;;1.48;0.60;;;;;;;;;;4979383;28;20461;-78
2023/01/11 01:55:10;;;;;;;1.77;0.65;;;;;;;;;;4979226;28;20054;-78
2023/01/11 01:57:37;;;;;;;2.05;0.50;;;;;;;;;;4976328;28;20046;-78
2023/01/11 02:00:06;;;;;;;1.70;0.40;;;;;;;;;;4972672;28;20058;-78
2023/01/11 02:02:33;;;;;;;1.45;0.70;;;;;;;;;;4989188;28;20058;-79
2023/01/11 02:05:00;;;;;;;0.65;0.47;;;;;;;;;;4994646;28;20506;-78
2023/01/11 02:07:32;;;;;;;0.65;0.30;;;;;;;;;;4971231;28;20854;-78
2023/01/11 02:10:15;;;;;;;2.10;0.50;;;;;;;;;;4944274;28;20403;-77
2023/01/11 02:13:00;;;;;;;2.95;0.57;;;;;;;;;;4970462;28;20430;-78
2023/01/11 02:15:27;;;;;;;1.83;0.50;;;;;;;;;;4993205;28;20061;-78
2023/01/11 02:17:54;;;;;;;1.10;0.32;;;;;;;;;;4976368;28;20061;-79
2023/01/11 02:20:43;;;;;;;1.63;0.50;;;;;;;;;;4959583;28;20084;-78
2023/01/11 02:23:42;;;;;;;1.75;0.52;;;;;;;;;;4975427;28;20145;-78
2023/01/11 02:26:36;;;;;;;0.93;0.50;;;;;;;;;;4982783;28;20430;-79
2023/01/11 02:29:23;;;;;;;1.00;0.40;;;;;;;;;;4996929;28;20064;-79
2023/01/11 02:32:07;;;;;;;0.40;0.30;;;;;;;;;;4969975;28;20049;-78
2023/01/11 02:34:40;;;;;;;2.30;0.55;;;;;;;;;;4984659;28;20054;-78
2023/01/11 02:37:25;;;;;;;1.90;0.70;;;;;;;;;;4980223;28;20491;-79
2023/01/11 02:40:05;;;;;;;1.38;0.77;;;;;;;;;;4994850;28;20061;-79
2023/01/11 02:46:06;;;;;;;1.40;0.50;;;;;;;;;;5016993;28;20141;-79
2023/01/11 02:48:41;;;;;;;1.13;0.60;;;;;;;;;;4982341;28;20062;-79
2023/01/11 02:51:13;;;;;;;2.03;0.32;;;;;;;;;;4982719;28;20061;-78
2023/01/11 02:54:02;;;;;;;1.58;0.40;;;;;;;;;;4999151;28;20061;-79
2023/01/11 02:56:31;;;;;;;1.00;0.30;;;;;;;;;;4984924;28;20058;-79
2023/01/11 02:58:59;;;;;;;1.65;0.40;;;;;;;;;;4998847;28;20101;-79
2023/01/11 03:01:26;;;;;;;0.40;0.40;;;;;;;;;;4983259;28;20057;-79
2023/01/11 03:03:53;;;;;;;0.93;0.38;;;;;;;;;;4998481;28;20057;-79
2023/01/11 03:10:11;;;;;;;3.10;0.30;;;;;;;;;;5015106;28;20046;-78
2023/01/11 03:13:12;;;;;;;0.82;0.40;;;;;;;;;;5014419;28;20054;-78
2023/01/11 03:16:19;;;;;;;0.85;0.25;;;;;;;;;;4995863;28;20057;-79
2023/01/11 03:18:48;;;;;;;2.20;0.50;;;;;;;;;;4979365;28;20494;-78
2023/01/11 03:21:43;;;;;;;2.50;0.50;;;;;;;;;;4996598;28;20065;-78
2023/01/11 03:24:20;;;;;;;1.20;0.28;;;;;;;;;;4979187;28;20054;-78
2023/01/11 03:27:04;;;;;;;1.02;0.30;;;;;;;;;;4980193;28;20383;-77
2023/01/11 03:29:47;;;;;;;0.65;0.32;;;;;;;;;;4978563;28;20054;-78
2023/01/11 03:32:32;;;;;;;0.32;0.20;;;;;;;;;;4979429;28;20057;-79
2023/01/11 03:35:13;;;;;;;0.95;0.20;;;;;;;;;;4974564;28;20053;-79
2023/01/11 03:38:09;;;;;;;0.40;0.38;;;;;;;;;;5012899;28;20417;-79
2023/01/11 03:40:57;;;;;;;0.90;0.50;;;;;;;;;;4973870;28;20502;-79
2023/01/11 03:43:23;;;;;;;0.55;0.32;;;;;;;;;;4979357;28;20054;-80
2023/01/11 03:46:08;;;;;;;1.63;0.20;;;;;;;;;;4963379;28;20056;-80
2023/01/11 03:48:45;;;;;;;0.43;0.22;;;;;;;;;;4978045;28;20054;-79
2023/01/11 03:51:14;;;;;;;0.98;0.28;;;;;;;;;;4994081;28;20628;-80
2023/01/11 03:53:40;;;;;;;0.88;0.38;;;;;;;;;;4978549;28;20058;-80
2023/01/11 03:56:09;;;;;;;0.40;0.20;;;;;;;;;;4994751;28;20080;-80
2023/01/11 03:58:36;;;;;;;0.30;0.20;;;;;;;;;;4962898;28;20433;-80
2023/01/11 04:01:03;;;;;;;1.42;0.30;;;;;;;;;;4971357;28;20068;-78
2023/01/11 04:03:30;;;;;;;0.52;0.30;;;;;;;;;;4975675;28;20112;-79
2023/01/11 04:05:58;;;;;;;1.27;0.20;;;;;;;;;;4994172;28;20104;-78
2023/01/11 04:08:25;;;;;;;0.20;0.20;;;;;;;;;;4978297;28;20050;-79
2023/01/11 04:10:52;;;;;;;1.52;0.20;;;;;;;;;;4993459;28;20437;-78
2023/01/11 04:13:19;;;;;;;1.75;0.30;;;;;;;;;;4977026;28;20541;-77
2023/01/11 04:15:45;;;;;;;0.40;0.30;;;;;;;;;;4957788;28;20054;-78
2023/01/11 04:18:12;;;;;;;1.20;0.30;;;;;;;;;;4962118;28;20054;-78
2023/01/11 04:20:39;;;;;;;1.30;0.40;;;;;;;;;;4974370;28;20062;-77
2023/01/11 04:23:07;;;;;;;0.57;0.20;;;;;;;;;;4988007;28;20092;-78
2023/01/11 04:25:34;;;;;;;1.08;0.20;;;;;;;;;;4976877;28;20057;-78
2023/01/11 04:28:00;;;;;;;1.50;0.30;;;;;;;;;;4973251;28;20050;-77
2023/01/11 04:30:27;;;;;;;0.57;0.32;;;;;;;;;;4969844;28;20061;-78
2023/01/11 04:32:56;;;;;;;0.55;0.40;;;;;;;;;;4995817;28;20057;-77
2023/01/11 04:35:24;;;;;;;0.60;0.38;;;;;;;;;;4960934;28;20058;-79
2023/01/11 04:37:54;;;;;;;0.70;0.22;;;;;;;;;;4960888;28;20093;-78
2023/01/11 04:40:22;;;;;;;0.85;0.45;;;;;;;;;;4961635;28;20061;-79
2023/01/11 04:42:48;;;;;;;2.97;0.85;;;;;;;;;;4964735;28;20054;-79
2023/01/11 04:45:15;;;;;;;1.48;0.30;;;;;;;;;;4997050;28;20060;-79
2023/01/11 04:47:42;;;;;;;0.57;0.20;;;;;;;;;;4979016;28;20053;-78
2023/01/11 04:50:10;;;;;;;0.28;0.20;;;;;;;;;;4995039;28;20061;-77
2023/01/11 04:52:39;;;;;;;0.55;0.38;;;;;;;;;;4967486;28;20143;-78
2023/01/11 04:55:06;;;;;;;2.70;0.98;;;;;;;;;;4964430;28;20050;-79
2023/01/11 04:57:33;;;;;;;0.65;0.40;;;;;;;;;;4979863;28;20104;-76
2023/01/11 05:00:00;;;;;;;1.80;0.45;;;;;;;;;;4977102;28;20054;-76
2023/01/11 05:02:26;;;;;;;1.15;0.20;;;;;;;;;;4969015;28;20053;-77
2023/01/11 05:04:53;;;;;;;1.20;0.30;;;;;;;;;;4998343;28;20046;-79
2023/01/11 05:07:20;;;;;;;1.17;0.80;;;;;;;;;;4996814;28;20445;-79
2023/01/11 05:09:47;;;;;;;0.68;0.50;;;;;;;;;;4983517;28;20053;-78
2023/01/11 05:12:13;;;;;;;0.57;0.57;;;;;;;;;;4983481;28;20059;-77
2023/01/11 05:14:40;;;;;;;1.00;0.90;;;;;;;;;;4976210;28;20057;-77
2023/01/11 05:17:07;;;;;;;0.40;0.30;;;;;;;;;;4983716;28;20046;-79
2023/01/11 05:19:34;;;;;;;2.00;0.35;;;;;;;;;;4983040;28;20490;-78
2023/01/11 05:22:09;;;;;;;0.38;0.30;;;;;;;;;;5000043;28;20050;-79
2023/01/11 05:24:36;;;;;;;0.85;0.38;;;;;;;;;;4983214;28;20066;-78
2023/01/11 05:27:04;;;;;;;1.55;0.50;;;;;;;;;;5006024;28;20406;-78
2023/01/11 05:29:31;;;;;;;0.73;0.60;;;;;;;;;;4980467;28;20050;-78
2023/01/11 05:31:58;;;;;;;1.02;0.93;;;;;;;;;;4991058;28;20502;-78
2023/01/11 05:34:25;;;;;;;2.15;1.92;;;;;;;;;;5001969;28;20064;-78
2023/01/11 05:36:52;;;;;;;3.35;0.50;;;;;;;;;;4999336;28;20054;-77
2023/01/11 05:39:18;;;;;;;1.27;0.40;;;;;;;;;;4998366;28;20050;-77
2023/01/11 05:41:45;;;;;;;0.30;0.30;;;;;;;;;;4982325;28;20414;-77
2023/01/11 05:46:58;;;;;;;1.33;0.22;;;;;;;;;;5000928;28;20071;-79
2023/01/11 05:49:25;;;;;;;0.52;0.35;;;;;;;;;;4966415;28;20058;-78
2023/01/11 05:51:51;;;;;;;0.77;0.30;;;;;;;;;;4982413;28;20061;-78
2023/01/11 05:54:18;;;;;;;2.40;0.30;;;;;;;;;;4996984;28;20058;-77
2023/01/11 05:56:45;;;;;;;0.77;0.40;;;;;;;;;;4981692;28;20209;-78
2023/01/11 05:59:11;;;;;;;1.33;0.30;;;;;;;;;;4978092;28;20136;-78
2023/01/11 06:01:38;;;;;;;1.10;0.50;;;;;;;;;;4974659;28;20049;-79
2023/01/11 06:04:05;;;;;;;0.68;0.50;;;;;;;;;;4997146;28;20057;-78
2023/01/11 06:06:32;;;;;;;0.57;0.43;;;;;;;;;;4979443;28;20502;-78
2023/01/11 06:08:59;;;;;;;1.65;0.65;;;;;;;;;;4997036;28;20058;-78
2023/01/11 06:11:25;;;;;;;1.27;0.60;;;;;;;;;;4981236;28;20061;-79
2023/01/11 06:13:52;;;;;;;0.60;0.45;;;;;;;;;;4964936;28;20066;-79
2023/01/11 06:16:20;;;;;;;0.38;0.22;;;;;;;;;;4996073;28;20058;-78
2023/01/11 06:18:49;;;;;;;1.48;0.40;;;;;;;;;;4979150;28;20494;-78
2023/01/11 06:21:16;;;;;;;0.90;0.50;;;;;;;;;;4978997;28;20049;-78
2023/01/11 06:23:45;;;;;;;0.70;0.40;;;;;;;;;;4980012;28;20050;-78
2023/01/11 06:26:13;;;;;;;0.73;0.40;;;;;;;;;;4982353;28;20061;-77
2023/01/11 06:28:41;;;;;;;0.47;0.30;;;;;;;;;;4965250;28;20068;-78
2023/01/11 06:31:08;;;;;;;0.47;0.30;;;;;;;;;;4981733;28;20056;-78
2023/01/11 06:33:35;;;;;;;1.38;0.47;;;;;;;;;;4982260;28;20098;-78
2023/01/11 06:36:06;;;;;;;0.70;0.40;;;;;;;;;;4965588;28;20053;-78
2023/01/11 06:38:34;;;;;;;0.47;0.47;;;;;;;;;;4980075;28;20056;-78
2023/01/11 06:41:02;;;;;;;0.40;0.40;;;;;;;;;;4980084;28;20137;-78
2023/01/11 06:43:29;;;;;;;0.60;0.47;;;;;;;;;;4964088;28;20457;-78
2023/01/11 06:45:56;;;;;;;1.85;0.57;;;;;;;;;;4980298;28;20053;-77
2023/01/11 06:48:23;;;;;;;1.02;0.50;;;;;;;;;;4970013;28;20047;-78
2023/01/11 06:50:53;;;;;;;0.70;0.30;;;;;;;;;;4977329;28;20431;-78
2023/01/11 06:53:20;;;;;;;1.30;0.90;;;;;;;;;;4962900;28;20054;-78
2023/01/11 06:55:51;;;;;;;0.82;0.57;;;;;;;;;;4946796;28;20057;-79
2023/01/11 06:58:19;;;;;;;0.88;0.55;;;;;;;;;;4969225;28;20056;-78
2023/01/11 07:00:46;;;;;;;1.13;0.40;;;;;;;;;;4977382;28;20050;-79
2023/01/11 07:03:12;;;;;;;1.48;0.43;;;;;;;;;;4977727;28;20077;-78
2023/01/11 07:05:39;;;;;;;2.58;0.52;;;;;;;;;;4980064;28;20061;-77
2023/01/11 07:08:07;;;;;;;2.33;0.60;;;;;;;;;;4959981;28;20086;-78
2023/01/11 07:10:33;;;;;;;0.65;0.38;;;;;;;;;;4960398;28;20487;-78
2023/01/11 07:13:00;;;;;;;0.50;0.40;;;;;;;;;;4964598;28;20546;-85
2023/01/11 07:15:27;;;;;;;0.80;0.73;;;;;;;;;;4968532;28;20413;-83
2023/01/11 07:17:55;;;;;;;2.45;0.90;;;;;;;;;;5000661;28;20151;-86
2023/01/11 07:20:23;;;;;;;0.90;0.57;;;;;;;;;;4969647;28;20061;-85
2023/01/11 07:22:50;;;;;;;0.95;0.60;;;;;;;;;;4969314;28;20160;-84
2023/01/11 07:25:17;;;;;;;0.95;0.47;;;;;;;;;;4985452;28;20054;-85
2023/01/11 07:27:44;;;;;;;2.47;0.65;;;;;;;;;;4984589;28;20057;-84
2023/01/11 07:30:11;;;;;;;1.75;0.63;;;;;;;;;;4999855;28;20093;-85
2023/01/11 07:32:38;;;;;;;2.33;0.95;;;;;;;;;;4999398;28;20054;-84
2023/01/11 07:35:05;;;;;;;2.13;0.80;;;;;;;;;;4977611;28;20054;-82
2023/01/11 07:37:34;;;;;;;1.58;1.05;;;;;;;;;;4972521;28;20045;-82
2023/01/11 07:40:01;;;;;;;1.35;0.63;;;;;;;;;;4958787;28;20136;-81
2023/01/11 07:45:14;;;;;;;1.50;0.80;;;;;;;;;;4989306;28;20054;-82
2023/01/11 07:47:41;;;;;;;3.03;1.58;;;;;;;;;;4989364;28;20045;-82
2023/01/11 07:50:09;;;;;;;2.20;0.60;;;;;;;;;;4983503;28;20138;-81
2023/01/11 07:52:36;;;;;;;1.45;0.60;;;;;;;;;;4987026;28;20053;-82
2023/01/11 07:55:03;;;;;;;3.08;0.65;;;;;;;;;;4961630;28;20084;-82
2023/01/11 07:57:31;;;;;;;2.65;0.50;;;;;;;;;;5003244;28;20042;-82
2023/01/11 07:59:58;;;;;;;0.77;0.77;;;;;;;;;;4974195;28;20470;-79
2023/01/11 08:02:25;;;;;;;0.82;0.82;;;;;;;;;;4985616;28;20045;-80
2023/01/11 08:04:53;;;;;;;1.70;1.20;;;;;;;;;;4972543;28;20133;-81
2023/01/11 08:07:20;;;;;;;1.25;0.90;;;;;;;;;;4984015;28;20046;-80
2023/01/11 08:09:46;;;;;;;1.40;1.00;;;;;;;;;;4977540;28;20085;-80
2023/01/11 08:15:00;;;;;;;1.10;0.77;;;;;;;;;;4987975;28;20054;-80
2023/01/11 08:17:27;;;;;;;0.90;0.68;;;;;;;;;;4987107;28;20478;-80
2023/01/11 08:19:54;;;;;;;2.55;0.73;;;;;;;;;;4978926;28;20533;-81
2023/01/11 08:22:21;;;;;;;1.15;0.50;;;;;;;;;;4987043;28;20053;-83
2023/01/11 08:24:48;;;;;;;1.40;0.68;;;;;;;;;;4985595;28;20050;-83
2023/01/11 08:27:15;;;;;;;1.10;0.47;;;;;;;;;;4977435;28;20097;-79
2023/01/11 08:29:45;;;;;;;0.50;0.50;;;;;;;;;;4990082;28;20474;-77
2023/01/11 08:32:12;;;;;;;0.47;0.47;;;;;;;;;;4988835;28;20104;-77
2023/01/11 08:34:39;;;;;;;0.65;0.30;;;;;;;;;;4972642;28;20050;-79
2023/01/11 08:37:06;;;;;;;1.23;0.40;;;;;;;;;;5009199;28;20124;-76
2023/01/11 08:39:33;;;;;;;3.45;0.50;;;;;;;;;;4987682;28;20053;-74
2023/01/11 08:42:01;;;;;;;1.10;0.20;;;;;;;;;;4990793;28;20054;-75
2023/01/11 08:44:28;;;;;;;1.08;0.30;;;;;;;;;;4986530;28;20461;-76
2023/01/11 08:47:01;;;;;;;1.52;0.60;;;;;;;;;;4977166;28;20050;-79
2023/01/11 08:49:29;;;;;;;1.08;0.40;;;;;;;;;;4967116;28;20498;-85
2023/01/11 08:51:56;;;;;;;0.90;0.50;;;;;;;;;;4959151;28;20046;-85
2023/01/11 08:54:24;;;;;;;1.75;0.60;;;;;;;;;;4995798;28;20120;-86
2023/01/11 08:56:51;;;;;;;1.70;0.60;;;;;;;;;;4974432;28;20108;-86
2023/01/11 08:59:21;;;;;;;0.98;0.40;;;;;;;;;;4960669;28;20077;-85
2023/01/11 09:01:48;;;;;;;0.68;0.50;;;;;;;;;;4984858;28;20060;-84
2023/01/11 09:04:15;;;;;;;0.55;0.50;;;;;;;;;;4960681;28;20137;-85
2023/01/11 09:06:51;;;;;;;1.40;0.60;;;;;;;;;;4996282;28;20088;-84
2023/01/11 09:09:19;;;;;;;0.60;0.40;;;;;;;;;;4993175;28;20054;-85
2023/01/11 09:11:56;;;;;;;1.73;0.50;;;;;;;;;;4983593;28;20073;-77
2023/01/11 09:14:24;;;;;;;0.80;0.80;;;;;;;;;;4991348;28;20053;-82
2023/01/11 09:16:52;;;;;;;0.90;0.60;;;;;;;;;;4973499;28;20062;-84
2023/01/11 09:19:19;;;;;;;2.63;0.60;;;;;;;;;;4970833;28;20049;-83
2023/01/11 09:21:46;;;;;;;4.97;0.80;;;;;;;;;;4972322;28;20049;-82
2023/01/11 09:24:14;;;;;;;1.60;0.80;;;;;;;;;;4971406;28;20061;-83
2023/01/11 09:26:42;;;;;;;0.95;0.70;;;;;;;;;;4988698;28;20091;-82
2023/01/11 09:29:10;;;;;;;1.20;0.70;;;;;;;;;;5009098;28;20463;-83
2023/01/11 09:31:37;;;;;;;1.42;0.60;;;;;;;;;;4975656;28;20085;-83
2023/01/11 09:34:05;;;;;;;1.40;0.60;;;;;;;;;;4972118;28;20058;-83
2023/01/11 09:36:35;;;;;;;1.08;0.90;;;;;;;;;;4988998;28;20068;-82
2023/01/11 09:39:07;;;;;;;1.08;0.77;;;;;;;;;;5001280;28;20544;-82
2023/01/11 09:42:10;;;;;;;4.13;1.40;;;;;;;;;;4972126;28;20057;-82
2023/01/11 09:44:45;;;;;;;1.93;0.60;;;;;;;;;;4982491;28;20054;-82
2023/01/11 09:47:16;;;;;;;1.30;0.68;;;;;;;;;;4950484;28;20534;-82
2023/01/11 09:49:54;;;;;;;1.40;0.60;;;;;;;;;;4950574;28;20076;-82
2023/01/11 09:52:37;;;;;;;1.23;0.70;;;;;;;;;;4954132;28;20085;-82
2023/01/11 09:55:04;;;;;;;1.17;0.57;;;;;;;;;;4970525;28;20068;-82
2023/01/11 09:57:37;;;;;;;0.55;0.50;;;;;;;;;;4968727;28;20054;-83
2023/01/11 10:00:10;;;;;;;1.10;0.60;;;;;;;;;;5001183;28;20058;-83
2023/01/11 10:02:37;;;;;;;0.90;0.80;;;;;;;;;;4995484;28;20058;-83
2023/01/11 10:05:22;;;;;;;2.05;0.70;;;;;;;;;;4997439;28;20061;-78
2023/01/11 10:07:53;;;;;;;1.10;0.75;;;;;;;;;;4995790;28;20060;-77
2023/01/11 10:10:46;;;;;;;1.52;0.98;;;;;;;;;;4997247;28;20050;-77
2023/01/11 10:13:53;;;;;;;1.35;0.90;;;;;;;;;;4961894;28;20057;-84
2023/01/11 10:16:49;;;;;;;1.92;0.98;;;;;;;;;;4968477;28;20160;-84
2023/01/11 10:19:48;;;;;;;1.20;0.88;;;;;;;;;;5021609;28;20114;-84
2023/01/11 10:22:30;;;;;;;1.60;1.08;;;;;;;;;;4994588;28;20050;-84
2023/01/11 10:25:33;;;;;;;0.88;0.70;;;;;;;;;;5009021;28;20047;-85
2023/01/11 10:28:06;;;;;;;2.13;1.17;;;;;;;;;;5006458;28;20056;-85
2023/01/11 10:39:47;;;;;;;;;;;;;;;;;;4995503;28;20120;-84
2023/01/11 10:42:20;;;;;;;1.13;0.77;;;;;;;;;;5004009;28;19980;-84
2023/01/11 10:44:59;;;;;;;1.10;0.80;;;;;;;;;;4963157;28;20112;-84
2023/01/11 10:47:31;;;;;;;4.43;0.68;;;;;;;;;;4969367;28;20054;-84
2023/01/11 10:50:00;;;;;;;0.80;0.47;;;;;;;;;;4977001;28;20176;-84
2023/01/11 10:52:40;;;;;;;1.02;0.80;;;;;;;;;;4980529;28;20078;-84
2023/01/11 10:55:17;;;;;;;0.63;0.50;;;;;;;;;;4976099;28;20067;-83
2023/01/11 10:58:01;;;;;;;1.05;0.90;;;;;;;;;;4977633;28;20432;-84
2023/01/11 11:01:03;;;;;;;1.00;0.80;;;;;;;;;;4972016;28;20124;-83
2023/01/11 11:04:10;;;;;;;2.63;1.20;;;;;;;;;;4990586;28;20056;-83
2023/01/11 11:06:46;;;;;;;1.98;0.60;;;;;;;;;;4987809;28;20582;-85
2023/01/11 11:09:41;;;;;;;1.90;1.20;;;;;;;;;;4979999;28;20473;-85
2023/01/11 11:12:24;;;;;;;1.30;0.65;;;;;;;;;;5000158;28;20066;-86
2023/01/11 11:15:12;;;;;;;1.15;0.45;;;;;;;;;;4991279;28;20076;-82
2023/01/11 11:17:40;;;;;;;0.52;0.50;;;;;;;;;;4976448;28;20050;-84
2023/01/11 11:20:25;;;;;;;1.90;0.45;;;;;;;;;;4959077;28;20061;-83
2023/01/11 11:22:53;;;;;;;2.92;0.63;;;;;;;;;;4959295;28;20054;-84
2023/01/11 11:25:26;;;;;;;1.08;0.60;;;;;;;;;;4957465;28;20096;-84
2023/01/11 11:28:06;;;;;;;2.85;0.80;;;;;;;;;;4979299;28;20050;-82
2023/01/11 11:30:35;;;;;;;0.70;0.50;;;;;;;;;;4960460;28;20057;-83
2023/01/11 11:33:33;;;;;;;2.30;1.30;;;;;;;;;;4991329;28;20066;-83
2023/01/11 11:36:07;;;;;;;6.78;2.38;;;;;;;;;;4987872;28;20050;-84
2023/01/11 11:39:02;;;;;;;6.53;2.08;;;;;;;;;;4973501;28;20053;-84
2023/01/11 11:41:31;;;;;;;5.30;1.77;;;;;;;;;;4950679;28;20053;-84
2023/01/11 11:44:17;;;;;;;3.95;1.77;;;;;;;;;;4973705;28;20107;-84
2023/01/11 11:47:15;;;;;;;3.58;2.15;;;;;;;;;;4969630;28;20054;-84
2023/01/11 11:49:46;;;;;;;5.25;2.33;;;;;;;;;;4967643;28;20089;-83
2023/01/11 11:52:15;;;;;;;3.10;1.60;;;;;;;;;;4989281;28;20525;-83
2023/01/11 11:54:48;;;;;;;4.50;1.60;;;;;;;;;;4968380;28;20104;-83
2023/01/11 11:57:25;;;;;;;1.45;0.70;;;;;;;;;;4965521;28;20129;-82
2023/01/11 12:00:02;;;;;;;2.88;1.10;;;;;;;;;;4971264;28;20053;-83
2023/01/11 12:02:30;;;;;;;3.42;1.40;;;;;;;;;;4975550;28;20081;-84
2023/01/11 12:04:59;;;;;;;1.40;0.60;;;;;;;;;;4960237;28;20119;-84
2023/01/11 12:07:33;;;;;;;1.05;0.68;;;;;;;;;;4956938;28;20046;-82
2023/01/11 12:10:17;;;;;;;0.80;0.57;;;;;;;;;;4960606;28;20105;-83
2023/01/11 12:13:08;;;;;;;1.00;0.70;;;;;;;;;;4957185;28;20049;-82
2023/01/11 12:15:36;;;;;;;0.80;0.80;;;;;;;;;;4974278;28;20050;-82
2023/01/11 12:18:35;;;;;;;1.30;1.10;;;;;;;;;;4972610;28;20058;-82
2023/01/11 12:21:15;;;;;;;1.75;0.95;;;;;;;;;;4993881;28;20066;-81
2023/01/11 12:23:42;;;;;;;3.10;1.00;;;;;;;;;;4984874;28;20418;-83
2023/01/11 12:26:20;;;;;;;1.65;1.10;;;;;;;;;;4968421;28;20148;-83
2023/01/11 12:29:12;;;;;;;1.60;0.90;;;;;;;;;;4983208;28;20495;-82
2023/01/11 12:32:02;;;;;;;0.82;0.75;;;;;;;;;;4984896;28;20058;-81
2023/01/11 12:34:51;;;;;;;1.10;1.00;;;;;;;;;;4984899;28;20054;-86
2023/01/11 12:37:24;;;;;;;2.80;1.23;;;;;;;;;;4984421;28;20537;-84
2023/01/11 12:39:51;;;;;;;;;;;;;;;;;;4969813;28;20419;-84
2023/01/11 12:42:37;;;;;;;1.33;0.90;;;;;;;;;;4986994;28;19945;-83
2023/01/11 12:45:29;;;;;;;1.27;0.80;;;;;;;;;;4989058;28;20053;-83
2023/01/11 12:48:07;;;;;;;2.42;0.90;;;;;;;;;;4984539;28;20149;-83
2023/01/11 12:50:57;;;;;;;2.45;1.35;;;;;;;;;;4960149;28;20061;-84
2023/01/11 12:53:58;;;;;;;2.33;1.55;;;;;;;;;;4988579;28;20058;-84
2023/01/11 12:56:35;;;;;;;2.38;1.20;;;;;;;;;;4970609;28;20058;-84
2023/01/11 12:59:31;;;;;;;2.13;0.88;;;;;;;;;;4974674;28;20046;-85
2023/01/11 13:02:17;;;;;;;2.13;1.00;;;;;;;;;;4989733;28;20412;-85
2023/01/11 13:05:22;;;;;;;3.05;1.38;;;;;;;;;;4988477;28;20065;-85
2023/01/11 13:08:19;;;;;;;1.00;0.90;;;;;;;;;;4975127;28;20484;-84
2023/01/11 13:10:55;;;;;;;3.97;2.03;;;;;;;;;;4961994;28;20058;-85
2023/01/11 13:14:11;;;;;;;10.57;5.20;;;;;;;;;;4988691;28;20072;-85
2023/01/11 13:17:03;;;;;;;2.60;1.80;;;;;;;;;;4970940;28;20058;-84
2023/01/11 13:19:59;;;;;;;2.05;1.20;;;;;;;;;;4979311;28;20065;-80
2023/01/11 13:22:32;;;;;;;2.60;1.33;;;;;;;;;;4967778;28;20081;-84
2023/01/11 13:25:00;;;;;;;1.48;1.08;;;;;;;;;;4988514;28;20057;-82
2023/01/11 13:27:30;;;;;;;1.63;1.20;;;;;;;;;;4960173;28;20059;-82
2023/01/11 13:29:58;;;;;;;1.80;1.20;;;;;;;;;;4959663;28;20057;-83
2023/01/11 13:32:37;;;;;;;3.30;1.40;;;;;;;;;;4970073;28;20050;-83
2023/01/11 13:35:33;;;;;;;2.35;1.30;;;;;;;;;;4953156;28;20112;-84
2023/01/11 13:38:26;;;;;;;1.65;0.70;;;;;;;;;;4961266;28;20050;-83
2023/01/11 13:40:55;;;;;;;1.25;1.02;;;;;;;;;;4970468;28;20086;-84
2023/01/11 13:43:41;;;;;;;2.00;0.95;;;;;;;;;;4986442;28;20490;-83
2023/01/11 13:46:32;;;;;;;1.40;1.30;;;;;;;;;;4971565;28;20058;-83
2023/01/11 13:49:07;;;;;;;1.45;1.35;;;;;;;;;;4983189;28;20382;-84
2023/01/11 13:51:40;;;;;;;1.75;1.17;;;;;;;;;;4983596;28;20061;-84
2023/01/11 13:54:12;;;;;;;1.83;0.90;;;;;;;;;;4975101;28;20050;-84
2023/01/11 13:56:46;;;;;;;2.23;1.40;;;;;;;;;;4970694;28;20101;-84
2023/01/11 13:59:31;;;;;;;4.03;2.55;;;;;;;;;;4973358;28;20293;-86
2023/01/11 14:02:00;;;;;;;2.33;1.48;;;;;;;;;;5001873;28;20061;-85
2023/01/11 14:04:46;;;;;;;2.45;1.85;;;;;;;;;;4969766;28;20053;-85
2023/01/11 14:07:22;;;;;;;2.80;1.73;;;;;;;;;;4985628;28;20101;-77
2023/01/11 14:10:11;;;;;;;2.83;1.50;;;;;;;;;;4987464;28;20051;-84
2023/01/11 14:13:06;;;;;;;2.20;1.75;;;;;;;;;;5009947;28;20075;-85
2023/01/11 14:15:56;;;;;;;2.65;1.27;;;;;;;;;;5005821;28;20054;-85
2023/01/11 14:18:40;;;;;;;2.10;0.75;;;;;;;;;;4975164;28;20073;-87
2023/01/11 14:21:21;;;;;;;2.85;1.10;;;;;;;;;;4978381;28;20050;-85
2023/01/11 14:23:49;;;;;;;2.10;1.05;;;;;;;;;;4967284;28;20050;-85
2023/01/11 14:26:34;;;;;;;1.10;0.90;;;;;;;;;;4952975;28;20133;-85
2023/01/11 14:29:24;;;;;;;2.30;1.77;;;;;;;;;;4988574;28;20105;-85
2023/01/11 14:32:16;;;;;;;1.30;1.20;;;;;;;;;;4998773;28;20089;-85
2023/01/11 14:35:17;;;;;;;1.00;0.63;;;;;;;;;;4985412;28;20407;-85
2023/01/11 14:38:00;;;;;;;0.88;0.80;;;;;;;;;;4984597;28;20068;-85
2023/01/11 14:40:48;;;;;;;4.15;1.50;;;;;;;;;;4966736;28;20046;-84
2023/01/11 14:43:27;;;;;;;1.58;0.82;;;;;;;;;;5000453;28;20597;-86
2023/01/11 14:46:40;;;;;;;1.55;0.65;;;;;;;;;;4988766;28;20065;-84
2023/01/11 14:49:15;;;;;;;1.13;0.80;;;;;;;;;;4890125;29;20416;-84
2023/01/11 14:51:42;;;;;;;0.80;0.60;;;;;;;;;;4998899;28;20674;-84
2023/01/11 14:54:21;;;;;;;1.63;0.82;;;;;;;;;;5006098;28;20084;-85
2023/01/11 14:56:53;;;;;;;1.60;0.80;;;;;;;;;;4992662;28;20073;-87
2023/01/11 14:59:27;;;;;;;0.90;0.65;;;;;;;;;;4977488;28;20073;-85
2023/01/11 15:02:03;;;;;;;2.45;1.30;;;;;;;;;;4990965;28;20064;-85
2023/01/11 15:04:33;;;;;;;1.70;1.02;;;;;;;;;;5006437;28;20050;-84
2023/01/11 15:07:01;;;;;;;1.13;0.93;;;;;;;;;;4959202;28;20136;-85
2023/01/11 15:09:42;;;;;;;0.60;0.50;;;;;;;;;;4974401;28;20197;-85
2023/01/11 15:12:38;;;;;;;1.35;0.90;;;;;;;;;;4969437;28;20061;-87
2023/01/11 15:15:18;;;;;;;1.73;1.00;;;;;;;;;;4964420;28;20177;-85
2023/01/11 15:20:55;;;;;;;2.65;0.60;;;;;;;;;;4989744;28;20136;-85
2023/01/11 15:23:22;;;;;;;1.08;0.98;;;;;;;;;;4969344;28;20054;-83
2023/01/11 15:26:01;;;;;;;0.52;0.52;;;;;;;;;;4953616;28;20113;-84
2023/01/11 15:28:37;;;;;;;5.07;1.05;;;;;;;;;;4961763;28;20057;-84
2023/01/11 15:31:04;;;;;;;1.08;0.70;;;;;;;;;;4982209;28;20057;-85
2023/01/11 15:33:50;;;;;;;1.05;0.70;;;;;;;;;;4974220;28;20081;-86
2023/01/11 15:36:17;;;;;;;1.95;0.93;;;;;;;;;;4954003;28;20113;-85
2023/01/11 15:39:04;;;;;;;3.65;1.42;;;;;;;;;;4971292;28;20494;-85
2023/01/11 15:44:48;;;;;;;2.33;1.00;;;;;;;;;;5007406;28;20141;-85
2023/01/11 15:47:27;;;;;;;3.00;1.75;;;;;;;;;;4989835;28;20049;-83
2023/01/11 15:50:25;;;;;;;2.70;1.00;;;;;;;;;;5006016;28;20514;-84
2023/01/11 15:53:15;;;;;;;4.22;1.60;;;;;;;;;;5006830;28;20467;-85
2023/01/11 15:55:57;;;;;;;2.88;0.98;;;;;;;;;;4957924;28;20050;-87
2023/01/11 15:58:30;;;;;;;5.32;3.13;;;;;;;;;;4999197;28;20077;-86
2023/01/11 16:01:23;;;;;;;4.97;1.90;;;;;;;;;;4979680;28;20042;-86
2023/01/11 16:03:54;;;;;;;4.82;2.20;;;;;;;;;;4972191;28;20568;-80